createdAt,value
2022-11-24T00:02:21.831Z,97
2022-11-24T00:12:21.646Z,97
2022-11-24T00:22:21.598Z,97
2022-11-24T00:32:21.592Z,97
2022-11-24T00:42:21.621Z,97
2022-11-24T00:52:21.556Z,97
2022-11-24T01:02:21.619Z,96
2022-11-24T01:12:21.577Z,96
2022-11-24T01:22:21.535Z,96
2022-11-24T01:32:21.517Z,96
2022-11-24T01:42:21.553Z,96
2022-11-24T01:52:21.504Z,96
2022-11-24T02:02:21.527Z,97
2022-11-24T02:12:21.508Z,97
2022-11-24T02:22:21.471Z,97
2022-11-24T02:32:21.454Z,97
2022-11-24T02:42:21.488Z,97
2022-11-24T02:52:21.445Z,97
2022-11-24T03:02:21.492Z,97
2022-11-24T03:12:21.454Z,97
2022-11-24T03:22:21.446Z,97
2022-11-24T03:32:21.396Z,97
2022-11-24T03:42:21.411Z,97
2022-11-24T03:52:21.405Z,97
2022-11-24T04:02:21.398Z,98
2022-11-24T04:12:21.345Z,98
2022-11-24T04:22:21.390Z,98
2022-11-24T04:32:21.318Z,98
2022-11-24T04:42:21.311Z,98
2022-11-24T04:52:21.347Z,98
2022-11-24T05:02:21.321Z,98
2022-11-24T05:12:21.279Z,98
2022-11-24T05:22:21.335Z,98
2022-11-24T05:32:21.285Z,98
2022-11-24T05:42:21.305Z,98
2022-11-24T05:52:21.324Z,98
2022-11-24T06:02:21.365Z,98
2022-11-24T06:12:21.236Z,98
2022-11-24T06:22:21.272Z,98
2022-11-24T06:32:21.224Z,98
2022-11-24T06:42:21.224Z,98
2022-11-24T06:52:21.242Z,98
2022-11-24T07:02:21.208Z,98
2022-11-24T07:12:21.194Z,98
2022-11-24T07:22:21.204Z,98
2022-11-24T07:32:21.215Z,98
2022-11-24T07:42:21.154Z,98
2022-11-24T07:52:21.158Z,98
2022-11-24T08:02:21.104Z,98
2022-11-24T08:12:21.154Z,98
2022-11-24T08:22:21.111Z,98
2022-11-24T08:32:22.607Z,98
2022-11-24T08:42:21.092Z,98
2022-11-24T08:52:21.095Z,98
2022-11-24T09:02:21.054Z,98
2022-11-24T09:12:21.056Z,98
2022-11-24T09:22:21.067Z,98
2022-11-24T09:32:21.000Z,98
2022-11-24T09:42:21.030Z,98
2022-11-24T09:52:21.002Z,98
2022-11-24T10:02:20.951Z,98
2022-11-24T10:12:20.967Z,98
2022-11-24T10:22:20.982Z,98
2022-11-24T10:32:20.912Z,98
2022-11-24T10:42:20.956Z,98
2022-11-24T10:52:20.908Z,98
2022-11-24T11:02:20.934Z,97
2022-11-24T11:12:42.803Z,97
2022-11-24T11:22:20.909Z,97
2022-11-24T11:42:45.399Z,96
2022-11-24T11:52:20.827Z,96
2022-11-24T12:02:20.969Z,95
2022-11-24T12:12:20.786Z,95
2022-11-24T12:22:20.770Z,94
2022-11-24T12:32:20.720Z,93
2022-11-24T12:42:20.727Z,93
2022-11-24T12:52:20.700Z,93
2022-11-24T13:02:20.701Z,93
2022-11-24T13:12:20.686Z,93
2022-11-24T13:22:20.618Z,93
2022-11-24T13:32:20.639Z,92
2022-11-24T13:42:42.897Z,92
2022-11-24T13:52:20.582Z,91
2022-11-24T14:02:20.676Z,90
2022-11-24T14:12:20.566Z,90
2022-11-24T14:22:20.531Z,91
2022-11-24T14:32:20.494Z,91
2022-11-24T14:42:20.512Z,91
2022-11-24T14:52:20.457Z,92
2022-11-24T15:02:20.522Z,92
2022-11-24T15:12:20.472Z,92
2022-11-24T15:22:20.416Z,92
2022-11-24T15:32:20.401Z,92
2022-11-24T15:42:20.431Z,91
2022-11-24T15:52:20.366Z,91
2022-11-24T16:02:20.432Z,91
2022-11-24T16:12:20.386Z,91
2022-11-24T16:22:20.344Z,91
2022-11-24T16:32:20.316Z,91
2022-11-24T16:42:20.325Z,92
2022-11-24T16:52:20.321Z,92
2022-11-24T17:02:20.320Z,92
2022-11-24T17:12:20.325Z,92
2022-11-24T17:22:20.297Z,92
2022-11-24T17:32:20.278Z,93
2022-11-24T17:42:20.213Z,93
2022-11-24T17:52:20.255Z,93
2022-11-24T18:02:20.315Z,93
2022-11-24T18:12:20.209Z,93
2022-11-24T18:22:36.753Z,94
2022-11-24T18:32:20.250Z,94
2022-11-24T18:42:20.175Z,94
2022-11-24T18:52:20.198Z,94
2022-11-24T19:02:20.169Z,94
2022-11-24T19:12:20.134Z,94
2022-11-24T19:22:20.152Z,94
2022-11-24T19:32:20.082Z,94
2022-11-24T19:42:20.072Z,94
2022-11-24T19:52:20.104Z,94
2022-11-24T20:02:20.138Z,94
2022-11-24T20:12:20.082Z,94
2022-11-24T20:22:20.083Z,94
2022-11-24T20:32:19.999Z,94
2022-11-24T20:42:20.012Z,94
2022-11-24T20:52:20.041Z,94
2022-11-24T21:02:20.040Z,94
2022-11-24T21:12:20.002Z,94
2022-11-24T21:22:20.022Z,94
2022-11-24T21:32:19.932Z,94
2022-11-24T21:42:19.938Z,94
2022-11-24T21:52:19.974Z,94
2022-11-24T22:02:19.996Z,94
2022-11-24T22:12:19.923Z,94
2022-11-24T22:22:19.941Z,94
2022-11-24T22:32:19.876Z,94
2022-11-24T22:42:19.918Z,94
2022-11-24T22:52:19.888Z,94
2022-11-24T23:02:19.851Z,94
2022-11-24T23:12:19.824Z,94
2022-11-24T23:22:20.653Z,94
2022-11-24T23:32:19.791Z,94
2022-11-24T23:42:19.833Z,94
2022-11-24T23:52:19.833Z,94
